Time;durP1;ratioP1;P1;durP2;ratioP2;P2;SDS_P1;SDS_P2;PMS_P1;PMS_P2;Temp;Humidity;BMP_temperature;BMP_pressure;BME280_temperature;BME280_humidity;BME280_pressure;Samples;Min_cycle;Max_cycle;Signal;HPM_P1;HPM_P2
2024/01/11 00:00:30;;;;;;;40.87;24.40;;;-2.50;99.90;;;;;;5052975;28;20199;-77
2024/01/11 00:02:58;;;;;;;41.20;24.37;;;-2.40;99.90;;;;;;5054574;28;20199;-77
2024/01/11 00:05:25;;;;;;;39.23;24.53;;;-2.30;99.90;;;;;;5053697;28;20203;-77
2024/01/11 00:07:53;;;;;;;39.73;25.53;;;-2.40;99.90;;;;;;5054262;28;20199;-78
2024/01/11 00:10:21;;;;;;;38.67;24.20;;;-2.50;99.90;;;;;;5033495;28;20242;-77
2024/01/11 00:12:48;;;;;;;40.37;24.83;;;-2.60;99.90;;;;;;5046232;28;20190;-77
2024/01/11 00:15:17;;;;;;;40.17;24.93;;;-2.60;99.90;;;;;;5054090;28;20196;-77
2024/01/11 00:17:45;;;;;;;41.97;25.20;;;-2.60;99.90;;;;;;5052655;28;20207;-79
2024/01/11 00:20:12;;;;;;;36.10;23.63;;;-2.80;99.90;;;;;;5053063;28;20223;-78
2024/01/11 00:22:40;;;;;;;39.87;23.43;;;-2.90;99.90;;;;;;5053044;28;20204;-77
2024/01/11 00:25:08;;;;;;;37.70;22.77;;;-2.90;99.90;;;;;;5053367;28;20416;-78
2024/01/11 00:27:35;;;;;;;37.93;24.20;;;-3.00;99.90;;;;;;5053491;28;20652;-78
2024/01/11 00:30:04;;;;;;;39.23;23.80;;;-2.90;99.90;;;;;;5070418;28;20225;-78
2024/01/11 00:32:32;;;;;;;37.73;24.50;;;-3.00;99.90;;;;;;5053396;28;20680;-78
2024/01/11 00:35:00;;;;;;;36.50;21.47;;;-2.90;99.90;;;;;;5056731;28;20211;-78
2024/01/11 00:37:41;;;;;;;37.97;22.73;;;-3.10;99.90;;;;;;5055731;28;20213;-78
2024/01/11 00:40:10;;;;;;;40.73;24.37;;;-3.20;99.90;;;;;;5057752;28;20217;-79
2024/01/11 00:42:37;;;;;;;36.63;23.93;;;-3.10;99.90;;;;;;5055994;28;20206;-78
2024/01/11 00:45:05;;;;;;;40.43;22.93;;;-3.20;99.90;;;;;;5057086;28;20203;-78
2024/01/11 00:47:34;;;;;;;37.40;22.47;;;-3.20;99.90;;;;;;5057699;28;20192;-79
2024/01/11 00:50:01;;;;;;;42.33;24.10;;;-3.10;99.90;;;;;;5057284;28;20218;-78
2024/01/11 00:52:29;;;;;;;39.23;23.83;;;-3.10;99.90;;;;;;5057742;28;20216;-79
2024/01/11 00:54:56;;;;;;;39.57;23.73;;;-3.00;99.90;;;;;;5058182;28;20198;-79
2024/01/11 00:57:23;;;;;;;36.87;22.80;;;-3.00;99.90;;;;;;5056542;28;20206;-79
2024/01/11 00:59:51;;;;;;;39.40;23.13;;;-3.20;99.90;;;;;;5052836;28;20213;-79
2024/01/11 01:02:20;;;;;;;37.83;24.17;;;-3.30;99.90;;;;;;5055810;28;20198;-79
2024/01/11 01:04:49;;;;;;;40.83;23.87;;;-3.20;99.90;;;;;;5057501;28;20186;-80
2024/01/11 01:07:16;;;;;;;35.60;22.97;;;-3.20;99.90;;;;;;5056289;28;20201;-79
2024/01/11 01:09:43;;;;;;;37.60;22.90;;;-3.30;99.90;;;;;;5056516;28;20225;-79
2024/01/11 01:12:11;;;;;;;35.23;22.30;;;-3.50;99.90;;;;;;5056181;28;20222;-79
2024/01/11 01:14:38;;;;;;;37.87;23.43;;;-3.50;99.90;;;;;;5055961;28;20671;-79
2024/01/11 01:17:06;;;;;;;44.00;23.90;;;-3.40;99.90;;;;;;5054030;28;20289;-79
2024/01/11 01:19:33;;;;;;;39.77;24.20;;;-3.40;99.90;;;;;;5055950;28;20210;-79
2024/01/11 01:22:01;;;;;;;39.20;24.43;;;-3.50;99.90;;;;;;5055805;28;20660;-78
2024/01/11 01:24:29;;;;;;;37.77;22.97;;;-3.50;99.90;;;;;;5056674;28;20202;-79
2024/01/11 01:26:56;;;;;;;38.13;22.27;;;-3.40;99.90;;;;;;5056558;28;20195;-79
2024/01/11 01:29:24;;;;;;;35.83;22.70;;;-3.40;99.90;;;;;;5056018;28;20221;-80
2024/01/11 01:31:51;;;;;;;37.30;24.03;;;-3.20;99.90;;;;;;5056298;28;20204;-79
2024/01/11 01:34:19;;;;;;;41.10;24.23;;;-3.10;99.90;;;;;;5054753;28;20194;-79
2024/01/11 01:36:46;;;;;;;43.50;24.53;;;-2.90;99.90;;;;;;5063478;28;20199;-79
2024/01/11 01:39:15;;;;;;;44.10;25.17;;;-2.80;99.90;;;;;;5056904;28;20221;-79
2024/01/11 01:41:43;;;;;;;42.53;24.83;;;-2.90;99.90;;;;;;5056858;28;20194;-79
2024/01/11 01:44:10;;;;;;;40.00;25.10;;;-2.90;99.90;;;;;;5056619;28;20198;-79
2024/01/11 01:46:38;;;;;;;40.63;23.87;;;-3.20;99.90;;;;;;5055014;28;20203;-79
2024/01/11 01:49:06;;;;;;;39.10;24.20;;;-3.20;99.90;;;;;;5056181;28;20613;-79
2024/01/11 01:51:34;;;;;;;38.77;23.83;;;-3.30;99.90;;;;;;5056006;28;20672;-79
2024/01/11 01:54:03;;;;;;;39.97;24.57;;;-3.50;99.90;;;;;;5056420;28;20214;-79
2024/01/11 01:56:33;;;;;;;44.30;23.30;;;-3.70;99.90;;;;;;5058162;28;20198;-77
2024/01/11 01:59:03;;;;;;;38.00;22.63;;;-3.70;99.90;;;;;;5057226;28;20218;-79
2024/01/11 02:01:31;;;;;;;35.17;22.67;;;-3.60;99.90;;;;;;5055662;28;20195;-79
2024/01/11 02:03:59;;;;;;;41.23;23.80;;;-3.60;99.90;;;;;;5056662;28;20213;-79
2024/01/11 02:06:29;;;;;;;36.37;22.50;;;-3.60;99.90;;;;;;5056817;28;20202;-79
2024/01/11 02:08:57;;;;;;;40.53;24.40;;;-3.70;99.90;;;;;;5056165;28;20210;-78
2024/01/11 02:11:25;;;;;;;37.97;23.47;;;-3.70;99.90;;;;;;5063367;28;20225;-79
2024/01/11 02:13:55;;;;;;;42.03;23.53;;;-3.70;99.90;;;;;;5055752;28;20209;-79
2024/01/11 02:16:22;;;;;;;41.33;23.87;;;-3.60;99.90;;;;;;5056528;28;20194;-79
2024/01/11 02:18:50;;;;;;;39.43;23.50;;;-3.50;99.90;;;;;;5055622;28;20692;-79
2024/01/11 02:21:18;;;;;;;36.57;23.50;;;-3.50;99.90;;;;;;5056239;28;20285;-79
2024/01/11 02:23:55;;;;;;;39.80;22.43;;;-3.60;99.90;;;;;;5054682;28;20213;-79
2024/01/11 02:26:22;;;;;;;40.07;22.87;;;-3.70;99.90;;;;;;5056894;28;20190;-79
2024/01/11 02:28:50;;;;;;;38.20;23.20;;;-3.60;99.90;;;;;;5055986;28;20221;-79
2024/01/11 02:31:17;;;;;;;43.47;25.27;;;-3.50;99.90;;;;;;5056303;28;20190;-79
2024/01/11 02:33:44;;;;;;;36.87;23.97;;;-3.60;99.90;;;;;;5055965;28;20197;-79
2024/01/11 02:36:12;;;;;;;39.93;24.00;;;-3.50;99.90;;;;;;5055635;28;20202;-78
2024/01/11 02:38:42;;;;;;;41.57;24.70;;;-3.50;99.90;;;;;;5055585;28;20225;-79
2024/01/11 02:41:12;;;;;;;41.13;24.90;;;-3.50;99.90;;;;;;5059012;28;20201;-79
2024/01/11 02:43:39;;;;;;;41.50;23.67;;;-3.50;99.90;;;;;;5059009;28;20206;-79
2024/01/11 02:46:07;;;;;;;41.20;24.53;;;-3.50;99.90;;;;;;5055879;28;20193;-79
2024/01/11 02:48:34;;;;;;;39.57;25.20;;;-3.60;99.90;;;;;;5056995;28;20225;-79
2024/01/11 02:51:01;;;;;;;39.20;24.83;;;-3.50;99.90;;;;;;5058975;28;20206;-79
2024/01/11 02:53:34;;;;;;;39.97;24.70;;;-3.60;99.90;;;;;;5060763;28;20213;-79
2024/01/11 02:56:01;;;;;;;43.40;24.63;;;-3.80;99.90;;;;;;5064657;28;20194;-79
2024/01/11 02:58:30;;;;;;;42.00;25.77;;;-3.70;99.90;;;;;;5071595;28;20216;-78
2024/01/11 03:00:57;;;;;;;39.60;24.90;;;-3.70;99.90;;;;;;5069917;28;20188;-78
2024/01/11 03:03:24;;;;;;;43.43;24.97;;;-3.80;99.90;;;;;;5071966;28;20206;-78
2024/01/11 03:05:52;;;;;;;38.33;24.67;;;-3.80;99.90;;;;;;5073336;28;20205;-78
2024/01/11 03:08:20;;;;;;;44.63;25.17;;;-3.90;99.90;;;;;;5071451;28;20217;-78
2024/01/11 03:10:47;;;;;;;40.63;25.83;;;-3.80;99.90;;;;;;5061540;28;20205;-79
2024/01/11 03:13:15;;;;;;;40.47;23.67;;;-3.80;99.90;;;;;;5058857;28;20213;-79
2024/01/11 03:15:43;;;;;;;40.67;24.70;;;-3.80;99.90;;;;;;5061526;28;20205;-79
2024/01/11 03:18:11;;;;;;;39.73;24.03;;;-3.90;99.90;;;;;;5059572;28;20205;-79
2024/01/11 03:20:38;;;;;;;41.93;23.93;;;-3.90;99.90;;;;;;5060093;28;20198;-79
2024/01/11 03:23:06;;;;;;;42.23;25.23;;;-4.00;99.90;;;;;;5059653;28;20193;-79
2024/01/11 03:25:33;;;;;;;40.93;23.43;;;-3.90;99.90;;;;;;5060879;28;20202;-79
2024/01/11 03:28:01;;;;;;;43.40;26.17;;;-3.80;99.90;;;;;;5058551;28;20217;-79
2024/01/11 03:30:29;;;;;;;43.03;25.53;;;-3.90;99.90;;;;;;5059544;28;20203;-79
2024/01/11 03:32:58;;;;;;;39.40;23.60;;;-3.80;99.90;;;;;;5056894;28;20217;-79
2024/01/11 03:35:25;;;;;;;40.67;24.70;;;-3.90;99.90;;;;;;5057115;28;20194;-78
2024/01/11 03:37:53;;;;;;;40.07;23.93;;;-4.00;99.90;;;;;;5048145;28;20206;-79
2024/01/11 03:40:21;;;;;;;38.63;24.63;;;-4.10;99.90;;;;;;5058518;28;20214;-78
2024/01/11 03:42:48;;;;;;;38.60;23.93;;;-3.90;99.90;;;;;;5057253;28;20190;-79
2024/01/11 03:45:19;;;;;;;38.63;24.00;;;-3.90;99.90;;;;;;5057153;28;20201;-78
2024/01/11 03:47:48;;;;;;;38.97;25.00;;;-3.90;99.90;;;;;;5057586;28;20199;-79
2024/01/11 03:50:17;;;;;;;47.73;26.03;;;-3.90;99.90;;;;;;5057129;28;20221;-78
2024/01/11 03:52:45;;;;;;;39.77;25.07;;;-4.00;99.90;;;;;;5057366;28;20240;-79
2024/01/11 03:55:12;;;;;;;40.33;25.07;;;-4.10;99.90;;;;;;5056898;28;20201;-79
2024/01/11 03:57:40;;;;;;;37.50;23.23;;;-4.00;99.90;;;;;;5053912;28;20201;-79
2024/01/11 04:00:09;;;;;;;48.63;27.20;;;-4.10;99.90;;;;;;5056581;28;20221;-78
2024/01/11 04:02:36;;;;;;;41.77;23.53;;;-4.20;99.90;;;;;;5056777;28;20269;-79
2024/01/11 04:05:04;;;;;;;40.43;25.23;;;-4.10;99.90;;;;;;5057403;28;20202;-79
2024/01/11 04:07:33;;;;;;;40.93;23.50;;;-4.10;99.90;;;;;;5058340;28;20207;-78
2024/01/11 04:10:00;;;;;;;40.20;24.33;;;-4.20;99.90;;;;;;5057905;28;20221;-79
2024/01/11 04:12:28;;;;;;;43.90;24.53;;;-4.30;99.90;;;;;;5047470;28;20222;-78
2024/01/11 04:14:55;;;;;;;37.80;22.37;;;-4.30;99.90;;;;;;5057277;28;20225;-78
2024/01/11 04:17:23;;;;;;;41.63;24.43;;;-4.20;99.90;;;;;;5057075;28;20198;-79
2024/01/11 04:19:50;;;;;;;39.07;24.30;;;-4.10;99.90;;;;;;5056966;28;20217;-78
2024/01/11 04:22:17;;;;;;;38.30;24.20;;;-4.20;99.90;;;;;;5058953;28;20610;-79
2024/01/11 04:24:46;;;;;;;41.33;24.17;;;-4.00;99.90;;;;;;5055295;28;20209;-79
2024/01/11 04:27:13;;;;;;;42.70;24.07;;;-4.00;99.90;;;;;;5055375;28;20197;-79
2024/01/11 04:29:41;;;;;;;39.53;23.93;;;-4.10;99.90;;;;;;5056237;28;20697;-79
2024/01/11 04:32:08;;;;;;;41.47;23.63;;;-4.00;99.90;;;;;;5055998;28;20198;-78
2024/01/11 04:34:36;;;;;;;42.10;25.30;;;-4.10;99.90;;;;;;5055589;28;20203;-79
2024/01/11 04:37:04;;;;;;;41.17;24.47;;;-4.10;99.90;;;;;;5054318;28;20190;-79
2024/01/11 04:39:32;;;;;;;40.03;23.87;;;-4.20;99.90;;;;;;5058087;28;20210;-78
2024/01/11 04:42:02;;;;;;;43.33;25.67;;;-4.30;99.90;;;;;;5051051;28;20202;-78
2024/01/11 04:44:29;;;;;;;38.17;24.27;;;-4.30;99.90;;;;;;5054096;28;20197;-79
2024/01/11 04:46:56;;;;;;;43.90;24.17;;;-4.30;99.90;;;;;;5047565;28;20204;-79
2024/01/11 04:49:24;;;;;;;44.13;25.43;;;-4.20;99.90;;;;;;5056144;28;20225;-79
2024/01/11 04:51:51;;;;;;;42.20;24.70;;;-3.90;99.90;;;;;;5056291;28;20213;-79
2024/01/11 04:54:19;;;;;;;39.23;23.73;;;-3.60;99.90;;;;;;5054364;28;20215;-79
2024/01/11 04:56:46;;;;;;;41.10;24.20;;;-3.60;99.90;;;;;;5053802;28;20198;-79
2024/01/11 04:59:15;;;;;;;44.70;25.93;;;-3.70;99.90;;;;;;5057293;28;20688;-79
2024/01/11 05:01:42;;;;;;;43.47;24.40;;;-3.90;99.90;;;;;;5056551;28;20221;-79
2024/01/11 05:04:10;;;;;;;40.77;25.47;;;-3.80;99.90;;;;;;5056791;28;20194;-79
2024/01/11 05:06:38;;;;;;;38.53;24.60;;;-3.90;99.90;;;;;;5056042;28;20213;-79
2024/01/11 05:09:05;;;;;;;39.70;23.97;;;-4.00;99.90;;;;;;5056324;28;20698;-79
2024/01/11 05:11:33;;;;;;;39.60;24.30;;;-4.20;99.90;;;;;;5057842;28;20201;-79
2024/01/11 05:14:00;;;;;;;38.10;23.57;;;-4.20;99.90;;;;;;5057257;28;20220;-79
2024/01/11 05:16:29;;;;;;;45.10;25.77;;;-4.20;99.90;;;;;;5055887;28;20198;-78
2024/01/11 05:18:58;;;;;;;41.63;24.77;;;-3.90;99.90;;;;;;5054950;28;20313;-79
2024/01/11 05:21:26;;;;;;;42.03;24.73;;;-3.90;99.90;;;;;;5056011;28;20204;-79
2024/01/11 05:23:54;;;;;;;40.00;24.47;;;-3.80;99.90;;;;;;5056811;28;20210;-79
2024/01/11 05:26:22;;;;;;;41.93;25.17;;;-3.90;99.90;;;;;;5057305;28;20208;-79
2024/01/11 05:28:49;;;;;;;39.27;24.63;;;-3.80;99.90;;;;;;5052511;28;20241;-78
2024/01/11 05:31:17;;;;;;;42.37;24.60;;;-3.80;99.90;;;;;;5055385;28;20202;-78
2024/01/11 05:33:46;;;;;;;41.77;24.27;;;-3.90;99.90;;;;;;5057178;28;20210;-79
2024/01/11 05:36:13;;;;;;;41.10;24.70;;;-3.80;99.90;;;;;;5049971;28;20195;-79
2024/01/11 05:38:41;;;;;;;40.23;24.87;;;-3.80;99.90;;;;;;5055748;28;20214;-78
2024/01/11 05:41:08;;;;;;;41.67;24.80;;;-3.80;99.90;;;;;;5047722;28;20202;-78
2024/01/11 05:43:36;;;;;;;39.07;24.20;;;-3.70;99.90;;;;;;5054864;28;20198;-78
2024/01/11 05:46:04;;;;;;;45.80;25.50;;;-3.70;99.90;;;;;;5054688;28;20216;-78
2024/01/11 05:48:31;;;;;;;39.70;24.27;;;-3.80;99.90;;;;;;5054672;28;20240;-78
2024/01/11 05:51:00;;;;;;;42.63;25.83;;;-4.10;99.90;;;;;;5052659;28;20198;-79
2024/01/11 05:53:28;;;;;;;42.80;26.00;;;-4.00;99.90;;;;;;5049429;28;20207;-79
2024/01/11 05:55:56;;;;;;;37.80;23.83;;;-4.10;99.90;;;;;;5063871;28;20201;-79
2024/01/11 05:58:23;;;;;;;39.70;23.43;;;-4.10;99.90;;;;;;5055275;28;20695;-79
2024/01/11 06:00:51;;;;;;;40.67;25.03;;;-4.20;99.90;;;;;;5055304;28;20191;-79
2024/01/11 06:03:18;;;;;;;40.63;23.30;;;-4.20;99.90;;;;;;5054950;28;20194;-78
2024/01/11 06:05:45;;;;;;;36.00;22.40;;;-4.30;99.90;;;;;;5050784;28;20206;-78
2024/01/11 06:08:14;;;;;;;39.80;25.23;;;-4.40;99.90;;;;;;5055912;28;20204;-79
2024/01/11 06:10:42;;;;;;;42.80;26.20;;;-4.30;99.90;;;;;;5054106;28;20198;-78
2024/01/11 06:13:09;;;;;;;37.17;23.53;;;-4.20;99.90;;;;;;5053508;28;20213;-79
2024/01/11 06:15:37;;;;;;;43.30;25.33;;;-4.20;99.90;;;;;;5054544;28;20195;-79
2024/01/11 06:18:05;;;;;;;35.27;22.57;;;-4.20;99.90;;;;;;5054349;28;20213;-77
2024/01/11 06:20:33;;;;;;;38.07;24.30;;;-4.20;99.90;;;;;;5054136;28;20209;-79
2024/01/11 06:23:00;;;;;;;39.37;24.27;;;-4.30;99.90;;;;;;5055130;28;20217;-79
2024/01/11 06:25:31;;;;;;;40.27;24.27;;;-4.30;99.90;;;;;;5051669;28;20293;-79
2024/01/11 06:27:58;;;;;;;38.07;23.63;;;-4.30;99.90;;;;;;5056426;28;20549;-78
2024/01/11 06:30:26;;;;;;;44.13;25.30;;;-4.40;99.90;;;;;;5057277;28;20194;-79
2024/01/11 06:32:53;;;;;;;40.90;23.50;;;-4.30;99.90;;;;;;5055469;28;20198;-79
2024/01/11 06:35:21;;;;;;;38.80;24.07;;;-4.30;99.90;;;;;;5056270;28;20217;-79
2024/01/11 06:37:48;;;;;;;40.97;24.47;;;-4.00;99.90;;;;;;5055854;28;20203;-79
2024/01/11 06:40:16;;;;;;;45.23;26.90;;;-3.60;99.90;;;;;;5054052;28;20237;-79
2024/01/11 06:42:45;;;;;;;44.93;26.27;;;-3.70;99.90;;;;;;5054313;28;20201;-78
2024/01/11 06:45:12;;;;;;;41.23;25.23;;;-4.00;99.90;;;;;;5055272;28;20182;-79
2024/01/11 06:47:39;;;;;;;36.17;23.53;;;-4.20;99.90;;;;;;5060000;28;20564;-79
2024/01/11 06:50:16;;;;;;;45.33;27.07;;;-4.30;99.90;;;;;;5054264;28;20241;-78
2024/01/11 06:52:43;;;;;;;37.73;24.47;;;-4.20;99.90;;;;;;5054428;28;20648;-79
2024/01/11 06:55:11;;;;;;;26.37;16.37;;;-4.30;99.90;;;;;;5053808;28;20195;-76
2024/01/11 06:57:38;;;;;;;25.93;17.33;;;-3.40;99.90;;;;;;5049863;28;20198;-76
2024/01/11 07:00:08;;;;;;;38.27;23.20;;;-0.60;99.90;;;;;;5050334;28;20223;-77
2024/01/11 07:02:36;;;;;;;43.47;27.20;;;1.00;99.90;;;;;;5049976;28;20207;-79
2024/01/11 07:05:04;;;;;;;42.53;26.73;;;-1.10;99.90;;;;;;5051231;28;20211;-79
2024/01/11 07:07:32;;;;;;;39.50;25.70;;;-2.20;99.90;;;;;;5053742;28;20630;-79
2024/01/11 07:10:00;;;;;;;38.97;25.67;;;-2.70;99.90;;;;;;5052909;28;20219;-79
2024/01/11 07:12:27;;;;;;;41.30;26.03;;;-3.00;99.90;;;;;;5047042;28;20202;-80
2024/01/11 07:14:55;;;;;;;40.20;26.53;;;-3.20;99.90;;;;;;5045122;28;20229;-80
2024/01/11 07:17:34;;;;;;;41.97;27.47;;;-3.30;99.90;;;;;;5033194;28;20201;-80
2024/01/11 07:20:04;;;;;;;49.93;28.07;;;-3.70;99.90;;;;;;5031658;28;20721;-80
2024/01/11 07:22:31;;;;;;;41.43;26.57;;;-3.80;99.90;;;;;;5028711;28;20216;-80
2024/01/11 07:24:58;;;;;;;42.40;25.87;;;-4.00;99.90;;;;;;5033816;28;20199;-79
2024/01/11 07:27:26;;;;;;;46.83;27.23;;;-4.00;99.90;;;;;;5037099;28;20202;-80
2024/01/11 07:29:58;;;;;;;39.30;25.97;;;-4.20;99.90;;;;;;5034983;28;20223;-79
2024/01/11 07:32:26;;;;;;;37.60;25.87;;;-4.30;99.90;;;;;;5028333;28;20199;-80
2024/01/11 07:34:55;;;;;;;44.43;27.30;;;-4.50;99.90;;;;;;5034737;28;20222;-79
2024/01/11 07:37:22;;;;;;;43.90;26.93;;;-4.60;99.90;;;;;;5033978;28;20200;-79
2024/01/11 07:39:50;;;;;;;45.80;27.00;;;-4.50;99.90;;;;;;5025301;28;20222;-78
2024/01/11 07:42:17;;;;;;;42.63;25.37;;;-4.40;99.90;;;;;;5036966;28;20203;-79
2024/01/11 07:44:51;;;;;;;47.73;26.77;;;-4.50;99.90;;;;;;5037388;28;20565;-79
2024/01/11 07:47:18;;;;;;;45.67;27.37;;;-4.50;99.90;;;;;;5035798;28;20205;-78
2024/01/11 07:49:45;;;;;;;45.20;25.67;;;-4.50;99.90;;;;;;5037417;28;20225;-78
2024/01/11 07:52:14;;;;;;;46.43;25.93;;;-4.50;99.90;;;;;;5038230;28;20567;-79
2024/01/11 07:54:41;;;;;;;41.87;25.90;;;-4.60;99.90;;;;;;5035488;28;20211;-79
2024/01/11 07:57:09;;;;;;;44.90;26.23;;;-4.70;99.90;;;;;;5033882;28;20199;-79
2024/01/11 07:59:37;;;;;;;46.10;25.80;;;-4.80;99.90;;;;;;5031901;28;20691;-78
2024/01/11 08:02:05;;;;;;;44.93;26.03;;;-4.60;99.90;;;;;;5029798;28;20226;-79
2024/01/11 08:04:33;;;;;;;41.57;25.40;;;-4.50;99.90;;;;;;5030831;28;20196;-79
2024/01/11 08:07:01;;;;;;;45.60;26.60;;;-4.50;99.90;;;;;;5031950;28;20207;-79
2024/01/11 08:09:31;;;;;;;37.43;25.13;;;-4.40;99.90;;;;;;5036418;28;20218;-77
2024/01/11 08:11:58;;;;;;;43.87;26.53;;;-4.50;99.90;;;;;;5056880;28;20232;-77
2024/01/11 08:14:25;;;;;;;44.77;28.60;;;-4.70;99.90;;;;;;5040203;28;20215;-79
2024/01/11 08:16:53;;;;;;;45.77;26.23;;;-4.50;99.90;;;;;;5046556;28;20220;-80
2024/01/11 08:19:25;;;;;;;47.83;28.63;;;-4.30;99.90;;;;;;5043937;28;20223;-81
2024/01/11 08:21:54;;;;;;;44.90;27.67;;;-3.90;99.90;;;;;;5038783;28;20217;-80
2024/01/11 08:24:21;;;;;;;44.70;27.43;;;-3.80;99.90;;;;;;5039726;28;20194;-81
2024/01/11 08:26:50;;;;;;;42.63;25.60;;;-3.50;99.90;;;;;;5052137;28;20195;-79
2024/01/11 08:29:19;;;;;;;45.43;26.80;;;-3.40;99.90;;;;;;5033345;28;20565;-80
2024/01/11 08:31:47;;;;;;;45.20;27.13;;;-3.50;99.90;;;;;;5024492;28;20204;-81
2024/01/11 08:34:18;;;;;;;50.50;28.53;;;-3.50;99.90;;;;;;5036379;28;20557;-80
2024/01/11 08:36:45;;;;;;;45.03;26.70;;;-3.30;99.90;;;;;;5032366;28;20214;-79
2024/01/11 08:39:14;;;;;;;42.73;28.10;;;-3.00;99.90;;;;;;5036506;28;20219;-79
2024/01/11 08:41:42;;;;;;;47.63;29.03;;;-2.90;99.90;;;;;;5037252;28;20202;-80
2024/01/11 08:44:10;;;;;;;48.23;29.10;;;-2.90;99.90;;;;;;5036606;28;20199;-82
2024/01/11 08:46:38;;;;;;;43.67;27.50;;;-2.80;99.90;;;;;;5055346;28;20201;-84
2024/01/11 08:49:05;;;;;;;45.57;27.93;;;-2.70;99.90;;;;;;5038533;28;20229;-81
2024/01/11 08:51:33;;;;;;;49.97;29.30;;;-2.60;99.90;;;;;;5041296;28;20196;-82
2024/01/11 08:54:00;;;;;;;48.77;29.77;;;-2.60;99.90;;;;;;5040282;28;20202;-82
2024/01/11 08:56:28;;;;;;;41.53;26.83;;;-2.70;99.90;;;;;;5036873;28;20246;-82
2024/01/11 08:58:56;;;;;;;49.77;28.17;;;-2.70;99.90;;;;;;5029782;28;20222;-82
2024/01/11 09:01:25;;;;;;;47.50;28.30;;;-2.60;99.90;;;;;;5039465;28;20210;-82
2024/01/11 09:03:52;;;;;;;43.87;26.80;;;-2.60;99.90;;;;;;5031279;28;20196;-81
2024/01/11 09:06:19;;;;;;;43.60;26.43;;;-2.60;99.90;;;;;;5039992;28;20194;-82
2024/01/11 09:08:47;;;;;;;46.97;27.83;;;-2.60;99.90;;;;;;5035270;28;20234;-82
2024/01/11 09:11:16;;;;;;;46.07;27.77;;;-2.40;99.90;;;;;;5040012;28;20547;-82
2024/01/11 09:13:44;;;;;;;39.23;26.03;;;-2.30;99.90;;;;;;5041900;28;20206;-82
2024/01/11 09:16:15;;;;;;;40.07;27.60;;;-2.30;99.90;;;;;;5038169;28;20227;-82
2024/01/11 09:18:44;;;;;;;43.53;26.43;;;-2.20;99.90;;;;;;5035561;28;20228;-82
2024/01/11 09:21:13;;;;;;;43.07;27.10;;;-2.20;99.90;;;;;;5038775;28;20208;-82
2024/01/11 09:23:40;;;;;;;40.23;26.20;;;-2.60;99.90;;;;;;5035531;28;20208;-82
2024/01/11 09:26:07;;;;;;;48.13;28.40;;;-2.50;99.90;;;;;;5028153;28;20207;-83
2024/01/11 09:28:35;;;;;;;44.10;27.57;;;-2.40;99.90;;;;;;5037714;28;20219;-82
2024/01/11 09:31:02;;;;;;;43.40;25.57;;;-2.20;99.90;;;;;;5038061;28;20214;-81
2024/01/11 09:33:30;;;;;;;42.77;26.87;;;-2.70;99.90;;;;;;5034550;28;20565;-82
2024/01/11 09:35:59;;;;;;;42.13;27.03;;;-2.50;99.90;;;;;;5034068;28;20202;-82
2024/01/11 09:38:26;;;;;;;42.37;26.63;;;-2.20;99.90;;;;;;5039086;28;20216;-81
2024/01/11 09:41:07;;;;;;;44.37;26.93;;;-2.30;99.90;;;;;;5038518;28;20209;-82
2024/01/11 09:43:41;;;;;;;42.67;28.23;;;-2.20;99.90;;;;;;5035300;28;20203;-82
2024/01/11 09:46:11;;;;;;;46.50;26.30;;;-2.20;99.90;;;;;;5045869;28;20206;-82
2024/01/11 09:48:41;;;;;;;43.27;27.73;;;-2.10;99.90;;;;;;5032920;28;20663;-82
2024/01/11 09:51:12;;;;;;;49.10;27.47;;;-2.00;99.90;;;;;;5035483;28;20212;-81
2024/01/11 09:53:40;;;;;;;44.60;26.47;;;-1.70;99.90;;;;;;5034415;28;20212;-82
2024/01/11 09:56:09;;;;;;;41.70;25.87;;;-1.50;99.90;;;;;;5036351;28;20659;-82
2024/01/11 09:58:37;;;;;;;41.53;26.53;;;-1.40;99.90;;;;;;5038442;28;20219;-81
2024/01/11 10:01:08;;;;;;;43.97;28.43;;;-1.50;99.90;;;;;;5036565;28;20198;-82
2024/01/11 10:03:36;;;;;;;42.10;26.80;;;-1.30;99.90;;;;;;5039395;28;20209;-82
2024/01/11 10:06:05;;;;;;;43.10;28.03;;;-1.20;99.90;;;;;;5052088;28;20202;-82
2024/01/11 10:08:34;;;;;;;50.47;27.53;;;-1.20;99.90;;;;;;5037715;28;20721;-82
2024/01/11 10:11:02;;;;;;;43.07;27.97;;;-1.10;99.90;;;;;;5035534;28;20205;-84
2024/01/11 10:13:32;;;;;;;40.07;25.77;;;-1.00;99.90;;;;;;5053349;28;20215;-80
2024/01/11 10:16:08;;;;;;;38.73;25.97;;;-0.90;99.90;;;;;;5024781;28;20227;-80
2024/01/11 10:18:36;;;;;;;44.57;26.30;;;-0.90;99.90;;;;;;5032232;28;20238;-77
2024/01/11 10:21:05;;;;;;;38.23;25.10;;;-1.00;99.90;;;;;;5036029;28;20206;-79
2024/01/11 10:23:36;;;;;;;36.87;24.17;;;-0.80;99.90;;;;;;5033410;28;20196;-80
2024/01/11 10:26:04;;;;;;;43.47;26.03;;;-0.70;99.90;;;;;;5037284;28;20206;-81
2024/01/11 10:28:32;;;;;;;39.40;25.53;;;-0.60;99.90;;;;;;5035790;28;20700;-81
2024/01/11 10:30:59;;;;;;;40.67;25.30;;;-0.60;99.70;;;;;;5036853;28;20210;-80
2024/01/11 10:33:27;;;;;;;43.63;26.23;;;-0.20;99.90;;;;;;5029563;28;20202;-80
2024/01/11 10:35:55;;;;;;;41.90;24.87;;;0.00;99.40;;;;;;5027569;28;20218;-79
2024/01/11 10:38:26;;;;;;;41.87;26.53;;;0.00;98.60;;;;;;5033249;28;20227;-80
2024/01/11 10:40:57;;;;;;;39.40;26.73;;;0.40;98.70;;;;;;5051343;28;20199;-80
2024/01/11 10:43:25;;;;;;;39.07;25.43;;;0.10;98.80;;;;;;5028762;28;20180;-80
2024/01/11 10:45:54;;;;;;;37.33;25.10;;;0.60;98.30;;;;;;5035177;28;20197;-80
2024/01/11 10:48:25;;;;;;;38.73;24.87;;;0.30;97.90;;;;;;5034406;28;20709;-80
2024/01/11 10:50:59;;;;;;;36.97;24.10;;;0.60;98.50;;;;;;5032541;28;20201;-80
2024/01/11 10:53:39;;;;;;;38.93;25.40;;;1.30;97.00;;;;;;5025743;28;21407;-81
2024/01/11 10:56:08;;;;;;;37.80;25.20;;;1.70;96.40;;;;;;5031617;28;20564;-79
2024/01/11 10:58:36;;;;;;;41.93;25.87;;;1.60;94.20;;;;;;5031505;28;20217;-79
2024/01/11 11:01:13;;;;;;;34.73;23.90;;;2.00;94.40;;;;;;5033375;28;20232;-78
2024/01/11 11:03:42;;;;;;;42.23;26.03;;;2.70;93.30;;;;;;5033632;28;20198;-79
2024/01/11 11:06:11;;;;;;;37.30;25.53;;;3.10;92.00;;;;;;5036799;28;20564;-79
2024/01/11 11:08:45;;;;;;;35.20;24.37;;;3.10;91.50;;;;;;5033073;28;20725;-79
2024/01/11 11:11:14;;;;;;;37.57;25.03;;;3.90;90.30;;;;;;5030468;28;20207;-80
2024/01/11 11:13:42;;;;;;;38.93;25.10;;;3.90;88.90;;;;;;5033406;28;20194;-80
2024/01/11 11:16:12;;;;;;;38.80;25.33;;;4.10;88.30;;;;;;5036791;28;20220;-80
2024/01/11 11:18:39;;;;;;;38.90;25.47;;;3.90;86.40;;;;;;5036903;28;20227;-80
2024/01/11 11:21:11;;;;;;;35.23;24.37;;;4.50;85.30;;;;;;5037069;28;20208;-80
2024/01/11 11:23:39;;;;;;;31.77;24.47;;;5.10;81.40;;;;;;5030967;28;20233;-80
2024/01/11 11:26:08;;;;;;;32.83;23.27;;;5.60;79.10;;;;;;5037523;28;20213;-79
2024/01/11 11:28:36;;;;;;;33.63;23.87;;;5.50;77.30;;;;;;5034529;28;20223;-76
2024/01/11 11:31:04;;;;;;;33.23;23.37;;;5.90;78.00;;;;;;5033803;28;20200;-78
2024/01/11 11:33:31;;;;;;;35.37;24.90;;;5.90;77.00;;;;;;5029889;28;20199;-81
2024/01/11 11:36:00;;;;;;;36.77;24.17;;;6.70;73.70;;;;;;5036284;28;20211;-80
2024/01/11 11:38:29;;;;;;;34.87;23.77;;;6.70;72.10;;;;;;5036311;28;20226;-81
2024/01/11 11:40:59;;;;;;;34.93;25.53;;;6.80;69.50;;;;;;5037396;28;20199;-80
2024/01/11 11:43:28;;;;;;;33.47;23.07;;;6.60;67.90;;;;;;5027071;28;20211;-81
2024/01/11 11:45:57;;;;;;;34.73;24.13;;;7.00;67.90;;;;;;5028978;28;20673;-80
2024/01/11 11:48:49;;;;;;;33.63;24.37;;;7.00;64.30;;;;;;5038414;28;20227;-81
2024/01/11 11:51:17;;;;;;;35.17;23.63;;;6.70;64.20;;;;;;5050332;28;20196;-79
2024/01/11 11:53:47;;;;;;;33.03;22.83;;;7.40;64.60;;;;;;5052257;28;20214;-80
2024/01/11 11:56:17;;;;;;;34.00;24.40;;;7.30;62.00;;;;;;5051131;28;20221;-80
2024/01/11 11:58:45;;;;;;;32.53;22.23;;;7.30;61.80;;;;;;5051884;28;20215;-80
2024/01/11 12:01:14;;;;;;;31.43;22.67;;;7.80;60.00;;;;;;5053947;28;20191;-80
2024/01/11 12:03:48;;;;;;;31.80;22.90;;;7.90;57.40;;;;;;5052027;28;20195;-82
2024/01/11 12:06:17;;;;;;;34.20;23.97;;;8.20;57.30;;;;;;5034401;28;20191;-81
2024/01/11 12:08:48;;;;;;;37.27;23.37;;;8.20;56.50;;;;;;5039830;28;20227;-81
2024/01/11 12:11:16;;;;;;;33.70;23.13;;;6.90;58.20;;;;;;5037289;28;20207;-80
2024/01/11 12:13:44;;;;;;;34.73;23.90;;;7.90;58.20;;;;;;5035047;28;20202;-81
2024/01/11 12:16:13;;;;;;;34.13;24.27;;;7.50;57.50;;;;;;5044357;28;20218;-81
2024/01/11 12:18:41;;;;;;;34.80;24.00;;;8.50;56.80;;;;;;5034355;28;20235;-81
2024/01/11 12:21:08;;;;;;;31.47;22.43;;;8.80;54.70;;;;;;5035868;28;20218;-81
2024/01/11 12:23:38;;;;;;;32.43;22.93;;;9.20;53.00;;;;;;5038912;28;20637;-81
2024/01/11 12:26:12;;;;;;;32.90;21.60;;;9.00;51.30;;;;;;5038337;28;20199;-81
2024/01/11 12:28:41;;;;;;;29.10;21.53;;;9.30;50.60;;;;;;5038213;28;20222;-81
2024/01/11 12:31:10;;;;;;;28.83;21.27;;;9.50;48.70;;;;;;5037633;28;20207;-81
2024/01/11 12:33:39;;;;;;;29.97;22.27;;;9.30;49.70;;;;;;5035970;28;20198;-81